createdAt,value
2022-09-06T00:01:58.418Z,689.53
2022-09-06T00:07:30.274Z,697.03
2022-09-06T00:13:01.920Z,689.53
2022-09-06T00:18:33.608Z,697.03
2022-09-06T00:24:05.488Z,689.53
2022-09-06T00:29:37.440Z,697.03
2022-09-06T00:35:09.029Z,689.53
2022-09-06T00:40:40.893Z,689.53
2022-09-06T00:46:12.702Z,689.53
2022-09-06T00:51:44.181Z,689.53
2022-09-06T00:57:15.955Z,689.53
2022-09-06T01:02:47.872Z,689.53
2022-09-06T01:08:19.680Z,697.03
2022-09-06T01:13:52.301Z,704.66
2022-09-06T01:19:24.125Z,697.03
2022-09-06T01:24:56.064Z,689.53
2022-09-06T01:30:27.460Z,697.03
2022-09-06T01:35:59.479Z,689.53
2022-09-06T01:41:31.343Z,697.03
2022-09-06T01:47:02.890Z,689.53
2022-09-06T01:52:34.724Z,697.03
2022-09-06T02:03:36.237Z,682.14
2022-09-06T02:09:07.910Z,697.03
2022-09-06T02:14:39.740Z,689.53
2022-09-06T02:20:11.383Z,697.03
2022-09-06T02:25:43.265Z,689.53
2022-09-06T02:31:15.010Z,697.03
2022-09-06T02:36:46.860Z,697.03
2022-09-06T02:42:18.602Z,697.03
2022-09-06T02:47:50.273Z,689.53
2022-09-06T02:53:22.287Z,689.53
2022-09-06T02:58:54.025Z,689.53
2022-09-06T03:04:25.898Z,697.03
2022-09-06T03:09:58.099Z,689.53
2022-09-06T03:15:29.637Z,697.03
2022-09-06T03:21:01.649Z,689.53
2022-09-06T03:26:33.681Z,697.03
2022-09-06T03:32:05.800Z,689.53
2022-09-06T03:37:37.622Z,689.53
2022-09-06T03:43:09.115Z,689.53
2022-09-06T03:48:41.187Z,697.03
2022-09-06T03:54:12.805Z,697.03
2022-09-06T03:59:44.890Z,689.53
2022-09-06T04:05:17.081Z,689.53
2022-09-06T04:10:49.228Z,697.03
2022-09-06T04:16:20.990Z,689.53
2022-09-06T04:21:52.577Z,697.03
2022-09-06T04:27:25.010Z,697.03
2022-09-06T04:32:56.626Z,689.53
2022-09-06T04:38:28.581Z,689.53
2022-09-06T04:44:00.273Z,697.03
2022-09-06T04:49:32.202Z,697.03
2022-09-06T04:55:03.897Z,689.53
2022-09-06T05:00:35.697Z,697.03
2022-09-06T05:06:07.342Z,689.53
2022-09-06T05:17:11.099Z,697.03
2022-09-06T05:22:42.901Z,697.03
2022-09-06T05:28:15.043Z,697.03
2022-09-06T05:33:46.995Z,697.03
2022-09-06T05:39:19.037Z,697.03
2022-09-06T05:44:50.874Z,704.66
2022-09-06T05:50:22.603Z,697.03
2022-09-06T05:55:54.798Z,704.66
2022-09-06T06:01:26.838Z,704.66
2022-09-06T06:06:58.588Z,697.03
2022-09-06T06:12:30.316Z,704.66
2022-09-06T06:18:02.354Z,697.03
2022-09-06T06:23:33.976Z,704.66
2022-09-06T06:29:06.251Z,712.41
2022-09-06T06:34:37.919Z,720.28
2022-09-06T06:40:10.015Z,720.28
2022-09-06T06:45:42.082Z,712.41
2022-09-06T06:51:13.524Z,720.28
2022-09-06T06:56:45.699Z,728.28
2022-09-06T07:02:17.520Z,720.28
2022-09-06T07:07:49.360Z,728.28
2022-09-06T07:13:23.251Z,712.41
2022-09-06T07:26:38.191Z,720.28
2022-09-06T07:37:41.750Z,712.41
2022-09-06T07:43:13.268Z,704.66
2022-09-06T07:48:45.212Z,704.66
2022-09-06T07:54:32.304Z,704.66
2022-09-06T07:59:48.700Z,712.41
2022-09-06T08:10:51.714Z,704.66
2022-09-06T08:16:23.249Z,704.66
2022-09-06T08:21:55.107Z,712.41
2022-09-06T08:27:27.218Z,704.66
2022-09-06T08:32:59.497Z,712.41
2022-09-06T08:38:30.950Z,712.41
2022-09-06T08:49:34.391Z,720.28
2022-09-06T08:55:06.308Z,704.66
2022-09-06T09:00:38.180Z,720.28
2022-09-06T09:06:10.165Z,712.41
2022-09-06T09:11:41.796Z,712.41
2022-09-06T09:17:13.255Z,720.28
2022-09-06T09:22:44.806Z,728.28
2022-09-06T09:28:16.440Z,720.28
2022-09-06T09:33:48.999Z,720.28
2022-09-06T09:39:20.591Z,728.28
2022-09-06T09:44:52.528Z,720.28
2022-09-06T09:50:24.021Z,720.28
2022-09-06T09:55:55.261Z,712.41
2022-09-06T10:01:26.996Z,720.28
2022-09-06T10:07:14.400Z,720.28
2022-09-06T10:12:30.912Z,720.28
2022-09-06T10:18:02.715Z,720.28
2022-09-06T10:29:05.697Z,720.28
2022-09-06T10:34:37.463Z,720.28
2022-09-06T10:40:09.397Z,720.28
2022-09-06T10:45:41.707Z,728.28
2022-09-06T10:51:13.545Z,720.28
2022-09-06T10:56:45.283Z,720.28
2022-09-06T11:02:17.414Z,720.28
2022-09-06T11:13:20.957Z,720.28
2022-09-06T11:18:52.657Z,720.28
2022-09-06T11:24:24.742Z,728.28
2022-09-06T11:29:56.860Z,728.28
2022-09-06T11:35:28.519Z,720.28
2022-09-06T11:41:00.234Z,728.28
2022-09-06T11:46:31.904Z,720.28
2022-09-06T11:52:03.214Z,720.28
2022-09-06T11:57:35.057Z,720.28
2022-09-06T12:08:38.736Z,728.28
2022-09-06T12:14:10.335Z,720.28
2022-09-06T12:19:44.339Z,720.28
2022-09-06T12:25:13.926Z,720.28
2022-09-06T12:30:45.953Z,728.28
2022-09-06T12:36:17.776Z,728.28
2022-09-06T12:41:49.341Z,728.28
2022-09-06T12:52:53.334Z,728.28
2022-09-06T12:58:24.834Z,728.28
2022-09-06T13:03:56.656Z,720.28
2022-09-06T13:09:28.496Z,720.28
2022-09-06T13:15:00.548Z,728.28
2022-09-06T13:20:32.441Z,728.28
2022-09-06T13:26:04.028Z,728.28
2022-09-06T13:31:35.874Z,728.28
2022-09-06T13:37:07.872Z,728.28
2022-09-06T13:42:39.427Z,728.28
2022-09-06T13:48:28.396Z,728.28
2022-09-06T13:53:43.021Z,720.28
2022-09-06T14:04:44.376Z,728.28
2022-09-06T14:10:16.312Z,728.28
2022-09-06T14:26:46.982Z,728.28
2022-09-06T14:32:22.365Z,728.28
2022-09-06T14:37:50.505Z,720.28
2022-09-06T14:43:22.261Z,720.28
2022-09-06T14:48:54.371Z,720.28
2022-09-06T14:54:29.274Z,712.41
2022-09-06T14:59:58.602Z,720.28
2022-09-06T15:05:30.509Z,720.28
2022-09-06T15:11:03.777Z,720.28
2022-09-06T15:16:35.603Z,720.28
2022-09-06T15:22:07.371Z,720.28
2022-09-06T15:27:39.134Z,720.28
2022-09-06T15:33:10.505Z,720.28
2022-09-06T15:44:11.505Z,720.28
2022-09-06T15:49:43.457Z,712.41
2022-09-06T15:55:15.271Z,712.41
2022-09-06T16:00:50.007Z,720.28
2022-09-06T16:06:26.901Z,720.28
2022-09-06T16:11:51.076Z,720.28
2022-09-06T16:28:22.424Z,720.28
2022-09-06T16:33:54.282Z,712.41
2022-09-06T16:39:25.813Z,712.41
2022-09-06T16:44:57.579Z,720.28
2022-09-06T16:50:29.465Z,720.28
2022-09-06T16:56:01.067Z,720.28
2022-09-06T17:01:33.071Z,712.41
2022-09-06T17:07:04.901Z,712.41
2022-09-06T17:12:37.453Z,712.41
2022-09-06T17:18:09.218Z,712.41
2022-09-06T17:34:39.742Z,712.41
2022-09-06T17:40:11.645Z,712.41
2022-09-06T17:45:43.238Z,712.41
2022-09-06T17:51:14.719Z,720.28
2022-09-06T17:56:46.479Z,720.28
2022-09-06T18:02:18.793Z,712.41
2022-09-06T18:07:50.641Z,712.41
2022-09-06T18:13:22.417Z,712.41
2022-09-06T18:21:14.447Z,712.41
2022-09-06T18:26:46.253Z,712.41
2022-09-06T18:37:49.734Z,712.41
2022-09-06T18:43:21.428Z,704.66
2022-09-06T18:48:53.127Z,712.41
2022-09-06T18:56:45.061Z,712.41
2022-09-06T19:02:17.114Z,704.66
2022-09-06T19:07:48.728Z,704.66
2022-09-06T19:13:20.670Z,712.41
2022-09-06T19:18:52.920Z,720.28
2022-09-06T19:29:56.655Z,931.67
2022-09-06T19:35:28.573Z,712.41
2022-09-06T19:41:00.210Z,712.41
2022-09-06T19:46:32.059Z,704.66
2022-09-06T19:52:03.618Z,704.66
2022-09-06T20:08:39.058Z,704.66
2022-09-06T20:14:11.181Z,704.66
2022-09-06T20:19:43.096Z,704.66
2022-09-06T20:25:14.892Z,931.67
2022-09-06T20:30:46.633Z,920.20
2022-09-06T20:36:20.787Z,931.67
2022-09-06T20:47:24.022Z,931.67
2022-09-06T20:52:55.664Z,931.67
2022-09-06T20:58:27.304Z,712.41
2022-09-06T21:03:59.078Z,704.66
2022-09-06T21:09:31.054Z,704.66
2022-09-06T21:20:34.529Z,712.41
2022-09-06T21:26:06.879Z,704.66
2022-09-06T21:31:38.942Z,704.66
2022-09-06T21:37:10.864Z,704.66
2022-09-06T21:42:42.651Z,697.03
2022-09-06T21:48:14.652Z,697.03
2022-09-06T21:53:46.232Z,704.66
2022-09-06T21:59:17.778Z,712.41
2022-09-06T22:04:49.377Z,704.66
2022-09-06T22:10:21.080Z,704.66
2022-09-06T22:15:52.980Z,712.41
2022-09-06T22:21:24.819Z,697.03
2022-09-06T22:26:56.732Z,704.66
2022-09-06T22:32:28.213Z,704.66
2022-09-06T22:38:00.177Z,704.66
2022-09-06T22:43:31.703Z,712.41
2022-09-06T22:49:03.563Z,704.66
2022-09-06T22:54:35.380Z,704.66
2022-09-06T23:00:07.129Z,704.66
2022-09-06T23:05:41.140Z,704.66
2022-09-06T23:11:12.894Z,704.66
2022-09-06T23:16:44.561Z,712.41
2022-09-06T23:22:16.620Z,712.41
2022-09-06T23:27:48.825Z,704.66
2022-09-06T23:38:52.026Z,704.66
2022-09-06T23:44:24.547Z,697.03
2022-09-06T23:49:57.983Z,704.66
2022-09-06T23:55:29.890Z,697.03
